Time;durP1;ratioP1;P1;durP2;ratioP2;P2;SDS_P1;SDS_P2;PMS_P1;PMS_P2;Temp;Humidity;BMP_temperature;BMP_pressure;BME280_temperature;BME280_humidity;BME280_pressure;Samples;Min_cycle;Max_cycle;Signal;HPM_P1;HPM_P2
2022/01/05 00:01:42;;;;;;;60.00;31.58;;;;;;;;;;5093339;28;20039;-50
2022/01/05 00:04:08;;;;;;;75.03;39.17;;;;;;;;;;5093307;28;20099;-47
2022/01/05 00:06:34;;;;;;;82.13;42.25;;;;;;;;;;5093088;28;20085;-55
2022/01/05 00:09:00;;;;;;;33.47;18.25;;;;;;;;;;5093083;28;20024;-52
2022/01/05 00:11:26;;;;;;;29.17;16.83;;;;;;;;;;5093041;28;20020;-52
2022/01/05 00:13:52;;;;;;;31.77;19.00;;;;;;;;;;5092938;28;20470;-57
2022/01/05 00:16:21;;;;;;;33.78;19.27;;;;;;;;;;5095659;28;20081;-53
2022/01/05 00:18:47;;;;;;;31.23;17.25;;;;;;;;;;5097079;28;20039;-45
2022/01/05 00:21:13;;;;;;;35.60;19.77;;;;;;;;;;5097191;28;20028;-48
2022/01/05 00:23:42;;;;;;;45.97;23.23;;;;;;;;;;5096955;28;20043;-45
2022/01/05 00:26:08;;;;;;;39.70;21.38;;;;;;;;;;5097110;28;20028;-54
2022/01/05 00:28:34;;;;;;;32.53;17.48;;;;;;;;;;5096641;28;20075;-53
2022/01/05 00:31:00;;;;;;;33.67;17.48;;;;;;;;;;5096999;28;20023;-54
2022/01/05 00:33:26;;;;;;;34.33;18.02;;;;;;;;;;5097022;28;20032;-50
2022/01/05 00:35:55;;;;;;;27.48;14.80;;;;;;;;;;5096851;28;20024;-52
2022/01/05 00:38:21;;;;;;;24.00;12.85;;;;;;;;;;5096794;28;20040;-53
2022/01/05 00:40:47;;;;;;;26.52;14.57;;;;;;;;;;5096715;28;20016;-47
2022/01/05 00:43:13;;;;;;;23.42;13.90;;;;;;;;;;5096586;28;20016;-53
2022/01/05 00:45:39;;;;;;;24.80;15.43;;;;;;;;;;5096561;28;20016;-45
2022/01/05 00:48:06;;;;;;;21.17;13.95;;;;;;;;;;5096732;28;20097;-49
2022/01/05 00:50:32;;;;;;;29.75;17.60;;;;;;;;;;5096802;28;20028;-52
2022/01/05 00:53:01;;;;;;;26.10;15.75;;;;;;;;;;5096529;28;20086;-55
2022/01/05 00:55:30;;;;;;;24.48;13.27;;;;;;;;;;5096546;28;20043;-53
2022/01/05 00:57:56;;;;;;;22.38;13.18;;;;;;;;;;5095993;28;20448;-52
2022/01/05 01:00:22;;;;;;;20.77;13.10;;;;;;;;;;5096373;28;20020;-44
2022/01/05 01:02:49;;;;;;;22.52;13.77;;;;;;;;;;5096631;28;20474;-46
2022/01/05 01:05:15;;;;;;;22.48;13.30;;;;;;;;;;5096405;28;20107;-47
2022/01/05 01:07:41;;;;;;;17.10;10.43;;;;;;;;;;5096244;28;20024;-52
2022/01/05 01:10:08;;;;;;;24.70;14.30;;;;;;;;;;5096116;28;20027;-53
2022/01/05 01:12:34;;;;;;;24.25;13.32;;;;;;;;;;5095982;28;20032;-52
2022/01/05 01:15:03;;;;;;;19.92;11.75;;;;;;;;;;5095949;28;20020;-48
2022/01/05 01:17:29;;;;;;;19.55;13.00;;;;;;;;;;5095971;28;20111;-50
2022/01/05 01:19:56;;;;;;;19.17;10.80;;;;;;;;;;5096108;28;20039;-46
2022/01/05 01:22:27;;;;;;;19.77;11.32;;;;;;;;;;5094688;28;20497;-53
2022/01/05 01:24:53;;;;;;;19.55;11.23;;;;;;;;;;5096058;28;20597;-52
2022/01/05 01:27:22;;;;;;;23.85;13.50;;;;;;;;;;5094300;28;20024;-46
2022/01/05 01:29:48;;;;;;;21.65;12.77;;;;;;;;;;5095697;28;20020;-53
2022/01/05 01:32:14;;;;;;;18.73;11.18;;;;;;;;;;5095837;28;20485;-51
2022/01/05 01:34:40;;;;;;;22.40;13.18;;;;;;;;;;5095840;28;20021;-53
2022/01/05 01:37:06;;;;;;;21.25;12.85;;;;;;;;;;5095476;28;20562;-45
2022/01/05 01:39:32;;;;;;;26.83;14.80;;;;;;;;;;5095617;28;20085;-51
2022/01/05 01:41:58;;;;;;;24.48;14.18;;;;;;;;;;5095447;28;20024;-49
2022/01/05 01:44:24;;;;;;;23.40;13.60;;;;;;;;;;5095690;28;20020;-50
2022/01/05 01:46:50;;;;;;;21.15;12.88;;;;;;;;;;5095488;28;20031;-47
2022/01/05 01:49:16;;;;;;;23.55;12.75;;;;;;;;;;5095458;28;20020;-46
2022/01/05 01:51:42;;;;;;;22.23;12.77;;;;;;;;;;5095388;28;20028;-52
2022/01/05 01:54:10;;;;;;;22.23;12.80;;;;;;;;;;5094482;28;20363;-46
2022/01/05 01:56:37;;;;;;;23.67;13.73;;;;;;;;;;5095027;28;20409;-47
2022/01/05 01:59:04;;;;;;;20.48;12.73;;;;;;;;;;5095255;28;20039;-45
2022/01/05 02:01:30;;;;;;;22.25;14.13;;;;;;;;;;5095201;28;20024;-45
2022/01/05 02:03:57;;;;;;;23.75;14.73;;;;;;;;;;5095318;28;20481;-45
2022/01/05 02:06:23;;;;;;;22.80;12.23;;;;;;;;;;5095241;28;20056;-46
2022/01/05 02:08:49;;;;;;;20.58;12.13;;;;;;;;;;5094984;28;20085;-45
2022/01/05 02:11:15;;;;;;;20.67;11.60;;;;;;;;;;5094986;28;20048;-45
2022/01/05 02:13:41;;;;;;;22.83;14.25;;;;;;;;;;5095039;28;20024;-46
2022/01/05 02:16:08;;;;;;;24.02;14.35;;;;;;;;;;5094888;28;20020;-50
2022/01/05 02:21:07;;;;;;;26.58;13.55;;;;;;;;;;5094929;28;20067;-53
2022/01/05 02:23:34;;;;;;;29.58;14.90;;;;;;;;;;5094693;28;20074;-53
2022/01/05 02:26:00;;;;;;;27.23;15.32;;;;;;;;;;5094614;28;20020;-48
2022/01/05 02:28:28;;;;;;;24.50;13.90;;;;;;;;;;5094357;28;20152;-54
2022/01/05 02:30:55;;;;;;;23.85;13.60;;;;;;;;;;5094699;28;20491;-50
2022/01/05 02:33:21;;;;;;;23.83;12.70;;;;;;;;;;5094790;28;20459;-49
2022/01/05 02:35:48;;;;;;;20.00;12.02;;;;;;;;;;5094616;28;20099;-54
2022/01/05 02:38:18;;;;;;;18.08;10.27;;;;;;;;;;5094235;28;20036;-53
2022/01/05 02:40:44;;;;;;;16.10;9.55;;;;;;;;;;5094387;28;20506;-53
2022/01/05 02:43:10;;;;;;;19.70;8.60;;;;;;;;;;5094510;28;20115;-50
2022/01/05 02:45:36;;;;;;;15.88;8.73;;;;;;;;;;5094516;28;20020;-45
2022/01/05 02:48:04;;;;;;;15.57;8.32;;;;;;;;;;5094399;28;20089;-52
2022/01/05 02:50:30;;;;;;;13.63;8.52;;;;;;;;;;5094208;28;20024;-47
2022/01/05 02:52:56;;;;;;;13.88;7.97;;;;;;;;;;5094440;28;20106;-45
2022/01/05 02:55:22;;;;;;;15.25;7.07;;;;;;;;;;5094236;28;20027;-54
2022/01/05 02:57:48;;;;;;;14.43;7.95;;;;;;;;;;5093906;28;20043;-53
2022/01/05 03:00:16;;;;;;;15.85;8.77;;;;;;;;;;5093935;28;20398;-53
2022/01/05 03:02:43;;;;;;;19.35;9.98;;;;;;;;;;5094070;28;20028;-53
2022/01/05 03:05:10;;;;;;;15.68;8.88;;;;;;;;;;5094111;28;20481;-53
2022/01/05 03:07:39;;;;;;;15.50;8.95;;;;;;;;;;5093985;28;20024;-51
2022/01/05 03:10:09;;;;;;;17.35;8.25;;;;;;;;;;5093903;28;20020;-52
2022/01/05 03:12:36;;;;;;;16.05;8.40;;;;;;;;;;5093797;28;20115;-53
2022/01/05 03:15:05;;;;;;;15.95;9.02;;;;;;;;;;5093713;28;20046;-46
2022/01/05 03:17:31;;;;;;;19.13;9.40;;;;;;;;;;5093673;28;20039;-51
2022/01/05 03:19:57;;;;;;;18.02;8.45;;;;;;;;;;5093669;28;20024;-46
2022/01/05 03:22:23;;;;;;;16.70;8.25;;;;;;;;;;5093740;28;20048;-53
2022/01/05 03:24:49;;;;;;;12.18;6.97;;;;;;;;;;5093611;28;20024;-50
2022/01/05 03:27:15;;;;;;;12.65;6.65;;;;;;;;;;5093205;28;20119;-45
2022/01/05 03:29:44;;;;;;;15.57;8.68;;;;;;;;;;5093456;28;20035;-52
2022/01/05 03:32:10;;;;;;;14.98;7.47;;;;;;;;;;5092261;28;20044;-45
2022/01/05 03:34:37;;;;;;;13.75;7.25;;;;;;;;;;5093496;28;20372;-53
2022/01/05 03:37:06;;;;;;;16.40;7.07;;;;;;;;;;5093519;28;20044;-54
2022/01/05 03:39:35;;;;;;;13.68;7.60;;;;;;;;;;5093441;28;20028;-49
2022/01/05 03:42:01;;;;;;;14.55;8.15;;;;;;;;;;5093638;28;20111;-51
2022/01/05 03:44:27;;;;;;;16.30;9.50;;;;;;;;;;5093238;28;20020;-54
2022/01/05 03:46:53;;;;;;;17.02;9.25;;;;;;;;;;5093479;28;20031;-54
2022/01/05 03:49:19;;;;;;;15.27;8.48;;;;;;;;;;5093326;28;20024;-48
2022/01/05 03:51:45;;;;;;;12.45;7.78;;;;;;;;;;5093213;28;20020;-45
2022/01/05 03:54:12;;;;;;;16.17;8.13;;;;;;;;;;5093380;28;20051;-54
2022/01/05 03:56:38;;;;;;;14.65;8.15;;;;;;;;;;5093110;28;20020;-46
2022/01/05 03:59:04;;;;;;;14.57;7.25;;;;;;;;;;5093208;28;20029;-54
2022/01/05 04:01:30;;;;;;;10.93;6.88;;;;;;;;;;5093318;28;20017;-45
2022/01/05 04:03:56;;;;;;;11.57;6.40;;;;;;;;;;5093216;28;20020;-48
2022/01/05 04:06:22;;;;;;;10.38;6.55;;;;;;;;;;5091933;28;20024;-50
2022/01/05 04:08:48;;;;;;;13.52;7.10;;;;;;;;;;5091901;28;20117;-48
2022/01/05 04:11:15;;;;;;;12.63;6.28;;;;;;;;;;5093098;28;20374;-53
2022/01/05 04:13:41;;;;;;;11.07;6.75;;;;;;;;;;5093173;28;20392;-54
2022/01/05 04:16:07;;;;;;;10.75;6.03;;;;;;;;;;5093135;28;20023;-48
2022/01/05 04:18:33;;;;;;;9.50;6.10;;;;;;;;;;5093071;28;20397;-45
2022/01/05 04:20:59;;;;;;;14.52;6.60;;;;;;;;;;5092996;28;20017;-51
2022/01/05 04:23:27;;;;;;;10.70;6.40;;;;;;;;;;5093103;28;20512;-49
2022/01/05 04:25:54;;;;;;;13.23;6.50;;;;;;;;;;5092850;28;20045;-48
2022/01/05 04:28:22;;;;;;;13.70;6.63;;;;;;;;;;5092928;28;20058;-48
2022/01/05 04:30:48;;;;;;;11.20;6.88;;;;;;;;;;5092822;28;20041;-54
2022/01/05 04:33:17;;;;;;;15.82;8.02;;;;;;;;;;5093107;28;20024;-45
2022/01/05 04:35:43;;;;;;;12.32;6.95;;;;;;;;;;5092905;28;20013;-45
2022/01/05 04:38:11;;;;;;;10.18;6.18;;;;;;;;;;5091481;28;20047;-45
2022/01/05 04:40:37;;;;;;;12.30;6.38;;;;;;;;;;5092768;28;20518;-45
2022/01/05 04:43:03;;;;;;;19.75;10.10;;;;;;;;;;5092976;28;20066;-45
2022/01/05 04:45:29;;;;;;;20.27;10.27;;;;;;;;;;5092697;28;20020;-45
2022/01/05 04:47:55;;;;;;;11.20;6.70;;;;;;;;;;5092754;28;20020;-45
2022/01/05 04:50:22;;;;;;;13.70;8.32;;;;;;;;;;5092786;28;20392;-46
2022/01/05 04:52:48;;;;;;;16.63;10.48;;;;;;;;;;5092696;28;20024;-46
2022/01/05 04:55:14;;;;;;;13.90;7.95;;;;;;;;;;5092578;28;20048;-45
2022/01/05 04:57:40;;;;;;;12.02;7.38;;;;;;;;;;5092510;28;20036;-47
2022/01/05 05:00:06;;;;;;;14.15;8.00;;;;;;;;;;5092552;28;20025;-48
2022/01/05 05:02:32;;;;;;;13.07;7.40;;;;;;;;;;5095306;28;20016;-45
2022/01/05 05:04:58;;;;;;;18.80;10.10;;;;;;;;;;5096190;28;20084;-44
2022/01/05 05:07:24;;;;;;;17.05;8.75;;;;;;;;;;5096110;28;20032;-45
2022/01/05 05:09:51;;;;;;;15.55;9.45;;;;;;;;;;5096188;28;20020;-45
2022/01/05 05:12:17;;;;;;;22.77;10.27;;;;;;;;;;5096144;28;20207;-45
2022/01/05 05:14:43;;;;;;;11.05;6.40;;;;;;;;;;5096192;28;20024;-46
2022/01/05 05:17:09;;;;;;;13.32;5.40;;;;;;;;;;5096036;28;20099;-45
2022/01/05 05:19:35;;;;;;;10.75;6.43;;;;;;;;;;5096280;28;20470;-45
2022/01/05 05:22:01;;;;;;;9.75;6.18;;;;;;;;;;5095983;28;20144;-46
2022/01/05 05:24:27;;;;;;;12.90;7.50;;;;;;;;;;5096090;28;20067;-45
2022/01/05 05:26:53;;;;;;;10.23;6.50;;;;;;;;;;5095933;28;20119;-46
2022/01/05 05:29:19;;;;;;;11.52;6.28;;;;;;;;;;5095574;28;20414;-45
2022/01/05 05:31:48;;;;;;;12.68;7.38;;;;;;;;;;5095895;28;20023;-46
2022/01/05 05:34:14;;;;;;;12.93;7.32;;;;;;;;;;5095674;28;20032;-46
2022/01/05 05:36:40;;;;;;;12.70;7.75;;;;;;;;;;5095652;28;20518;-45
2022/01/05 05:39:13;;;;;;;10.73;6.85;;;;;;;;;;5095552;28;20040;-46
2022/01/05 05:41:41;;;;;;;13.85;6.38;;;;;;;;;;5095473;28;20151;-43
2022/01/05 05:44:07;;;;;;;12.32;6.07;;;;;;;;;;5095474;28;20024;-44
2022/01/05 05:46:34;;;;;;;10.20;7.07;;;;;;;;;;5095590;28;20020;-46
2022/01/05 05:49:00;;;;;;;16.77;11.15;;;;;;;;;;5095730;28;20020;-46
2022/01/05 05:51:26;;;;;;;17.50;11.05;;;;;;;;;;5095508;28;20016;-45
2022/01/05 05:53:52;;;;;;;19.70;10.93;;;;;;;;;;5095396;28;20489;-47
2022/01/05 05:56:18;;;;;;;14.65;7.15;;;;;;;;;;5095233;28;20032;-48
2022/01/05 05:58:44;;;;;;;11.85;7.28;;;;;;;;;;5095305;28;20047;-46
2022/01/05 06:01:10;;;;;;;13.20;7.97;;;;;;;;;;5095206;28;20529;-45
2022/01/05 06:03:36;;;;;;;9.30;6.13;;;;;;;;;;5095348;28;20032;-46
2022/01/05 06:06:02;;;;;;;11.50;6.03;;;;;;;;;;5095136;28;20148;-45
2022/01/05 06:08:28;;;;;;;9.30;6.18;;;;;;;;;;5095351;28;20031;-46
2022/01/05 06:10:54;;;;;;;10.30;6.40;;;;;;;;;;5094866;28;20145;-52
2022/01/05 06:13:21;;;;;;;9.88;6.32;;;;;;;;;;5094560;28;20103;-53
2022/01/05 06:15:47;;;;;;;11.52;5.95;;;;;;;;;;5094988;28;20036;-55
2022/01/05 06:18:13;;;;;;;17.48;12.07;;;;;;;;;;5095307;28;20581;-53
2022/01/05 06:20:39;;;;;;;23.20;14.93;;;;;;;;;;5094807;28;20078;-52
2022/01/05 06:23:05;;;;;;;17.88;9.30;;;;;;;;;;5094820;28;20024;-51
2022/01/05 06:25:31;;;;;;;17.75;11.20;;;;;;;;;;5094814;28;20117;-52
2022/01/05 06:27:57;;;;;;;24.08;10.55;;;;;;;;;;5094702;28;20036;-46
2022/01/05 06:30:23;;;;;;;12.07;7.80;;;;;;;;;;5094574;28;20032;-46
2022/01/05 06:32:51;;;;;;;14.80;8.60;;;;;;;;;;5094693;28;20127;-46
2022/01/05 06:35:19;;;;;;;18.60;8.52;;;;;;;;;;5094529;28;20024;-46
2022/01/05 06:37:45;;;;;;;11.73;6.65;;;;;;;;;;5094295;28;20066;-40
2022/01/05 06:40:12;;;;;;;12.95;9.25;;;;;;;;;;5094452;28;20059;-47
2022/01/05 06:42:38;;;;;;;29.48;16.05;;;;;;;;;;5094121;28;20024;-48
2022/01/05 06:45:05;;;;;;;29.75;16.38;;;;;;;;;;5094238;28;20510;-48
2022/01/05 06:47:31;;;;;;;36.28;20.20;;;;;;;;;;5094589;28;20103;-50
2022/01/05 06:49:57;;;;;;;51.60;26.77;;;;;;;;;;5094299;28;20021;-47
2022/01/05 06:52:23;;;;;;;53.17;26.50;;;;;;;;;;5094070;28;20381;-48
2022/01/05 06:54:49;;;;;;;28.30;14.55;;;;;;;;;;5094368;28;20371;-48
2022/01/05 06:57:15;;;;;;;46.75;23.98;;;;;;;;;;5094109;28;20097;-52
2022/01/05 06:59:41;;;;;;;9.40;6.40;;;;;;;;;;5094067;28;20035;-53
2022/01/05 07:02:07;;;;;;;9.10;5.30;;;;;;;;;;5094306;28;20032;-52
2022/01/05 07:04:34;;;;;;;10.60;5.97;;;;;;;;;;5093670;28;20024;-53
2022/01/05 07:07:02;;;;;;;9.02;6.43;;;;;;;;;;5093894;28;20020;-52
2022/01/05 07:09:28;;;;;;;10.07;5.38;;;;;;;;;;5093925;28;20024;-51
2022/01/05 07:11:54;;;;;;;16.88;11.32;;;;;;;;;;5093973;28;20024;-51
2022/01/05 07:14:20;;;;;;;12.45;8.30;;;;;;;;;;5093659;28;20028;-51
2022/01/05 07:16:46;;;;;;;10.57;7.32;;;;;;;;;;5094047;28;20028;-50
2022/01/05 07:19:13;;;;;;;8.32;6.07;;;;;;;;;;5093668;28;20492;-52
2022/01/05 07:21:39;;;;;;;10.88;6.60;;;;;;;;;;5093967;28;20032;-51
2022/01/05 07:24:11;;;;;;;10.95;7.75;;;;;;;;;;5093460;28;20069;-51
2022/01/05 07:26:37;;;;;;;15.85;9.65;;;;;;;;;;5093135;28;20016;-51
2022/01/05 07:29:03;;;;;;;12.43;7.88;;;;;;;;;;5093456;28;20083;-51
2022/01/05 07:31:29;;;;;;;10.10;7.05;;;;;;;;;;5093626;28;20059;-53
2022/01/05 07:33:56;;;;;;;13.25;7.88;;;;;;;;;;5093800;28;20427;-51
2022/01/05 07:36:22;;;;;;;22.67;9.57;;;;;;;;;;5093510;28;20024;-52
2022/01/05 07:38:48;;;;;;;22.95;10.55;;;;;;;;;;5093366;28;20173;-52
2022/01/05 07:41:14;;;;;;;25.38;12.82;;;;;;;;;;5093486;28;20390;-52
2022/01/05 07:43:40;;;;;;;28.58;14.52;;;;;;;;;;5093609;28;20082;-52
2022/01/05 07:46:06;;;;;;;26.67;13.18;;;;;;;;;;5093417;28;20469;-53
2022/01/05 07:48:32;;;;;;;22.58;11.73;;;;;;;;;;5093543;28;20045;-52
2022/01/05 07:50:58;;;;;;;12.48;8.55;;;;;;;;;;5093215;28;20024;-52
2022/01/05 07:53:24;;;;;;;14.32;8.82;;;;;;;;;;5093256;28;20107;-53
2022/01/05 07:55:51;;;;;;;19.17;12.75;;;;;;;;;;5093226;28;20423;-52
2022/01/05 07:58:17;;;;;;;18.70;12.82;;;;;;;;;;5074625;28;20054;-52
2022/01/05 08:00:43;;;;;;;23.08;14.40;;;;;;;;;;5093336;28;20381;-52
2022/01/05 08:03:09;;;;;;;19.10;11.27;;;;;;;;;;5093257;28;20028;-52
2022/01/05 08:05:35;;;;;;;13.65;9.30;;;;;;;;;;5093204;28;20028;-53
2022/01/05 08:08:01;;;;;;;21.98;11.65;;;;;;;;;;5093262;28;20035;-53
2022/01/05 08:10:27;;;;;;;37.50;18.08;;;;;;;;;;5093109;28;20171;-53
2022/01/05 08:12:53;;;;;;;49.05;24.08;;;;;;;;;;5093550;28;20039;-52
2022/01/05 08:15:19;;;;;;;43.00;21.10;;;;;;;;;;5092897;28;20126;-52
2022/01/05 08:17:45;;;;;;;38.47;18.52;;;;;;;;;;5092993;28;20111;-52
2022/01/05 08:20:12;;;;;;;35.60;18.08;;;;;;;;;;5093445;28;20020;-52
2022/01/05 08:22:40;;;;;;;39.42;18.48;;;;;;;;;;5093173;28;20028;-53
2022/01/05 08:25:06;;;;;;;43.08;20.08;;;;;;;;;;5093151;28;20020;-52
2022/01/05 08:27:32;;;;;;;46.50;19.05;;;;;;;;;;5092858;28;20044;-53
2022/01/05 08:30:04;;;;;;;86.05;36.00;;;;;;;;;;5093106;28;20103;-54
2022/01/05 08:32:30;;;;;;;78.15;37.78;;;;;;;;;;5092970;28;20020;-52
2022/01/05 08:34:56;;;;;;;68.53;35.45;;;;;;;;;;5092906;28;20024;-51
2022/01/05 08:37:24;;;;;;;55.03;29.88;;;;;;;;;;5095507;28;20031;-51
2022/01/05 08:39:53;;;;;;;40.53;24.20;;;;;;;;;;5096720;28;20024;-53
2022/01/05 08:42:19;;;;;;;50.95;25.77;;;;;;;;;;5096614;28;20022;-51
2022/01/05 08:44:47;;;;;;;63.47;29.55;;;;;;;;;;5096479;28;20055;-53
2022/01/05 08:47:13;;;;;;;50.72;25.35;;;;;;;;;;5096831;28;20023;-52
2022/01/05 08:49:39;;;;;;;49.67;25.63;;;;;;;;;;5096510;28;20111;-52
2022/01/05 08:52:06;;;;;;;39.97;18.20;;;;;;;;;;5096632;28;20044;-52
2022/01/05 08:54:32;;;;;;;37.60;18.83;;;;;;;;;;5096978;28;20027;-52
2022/01/05 08:56:58;;;;;;;33.60;17.58;;;;;;;;;;5096499;28;20026;-51
2022/01/05 08:59:24;;;;;;;37.90;19.38;;;;;;;;;;5096474;28;20040;-52
2022/01/05 09:01:51;;;;;;;42.17;21.58;;;;;;;;;;5096465;28;20024;-51
2022/01/05 09:04:17;;;;;;;51.00;23.02;;;;;;;;;;5096342;28;20027;-52
2022/01/05 09:06:43;;;;;;;51.40;25.40;;;;;;;;;;5096225;28;20081;-52
2022/01/05 09:09:09;;;;;;;45.15;23.52;;;;;;;;;;5096300;28;20055;-52
2022/01/05 09:11:36;;;;;;;29.83;17.23;;;;;;;;;;5096236;28;20020;-52
2022/01/05 09:14:02;;;;;;;36.42;17.55;;;;;;;;;;5096246;28;20051;-52
2022/01/05 09:16:30;;;;;;;26.77;15.45;;;;;;;;;;5094664;28;20016;-52
2022/01/05 09:18:56;;;;;;;28.25;13.32;;;;;;;;;;5096357;28;20493;-53
2022/01/05 09:21:22;;;;;;;24.45;12.57;;;;;;;;;;5096123;28;20028;-52
2022/01/05 09:23:50;;;;;;;28.33;16.08;;;;;;;;;;5095894;28;20111;-54
2022/01/05 09:26:16;;;;;;;30.02;16.35;;;;;;;;;;5095850;28;20028;-54
2022/01/05 09:28:44;;;;;;;28.67;17.02;;;;;;;;;;5095761;28;20044;-54
2022/01/05 09:31:15;;;;;;;32.58;16.75;;;;;;;;;;5095758;28;20103;-53
2022/01/05 09:33:41;;;;;;;33.70;16.30;;;;;;;;;;5095941;28;20496;-54
2022/01/05 09:36:15;;;;;;;32.30;17.65;;;;;;;;;;5095742;28;20466;-53
2022/01/05 09:43:56;;;;;;;40.00;21.33;;;;;;;;;;5095495;28;20035;-52
2022/01/05 09:46:30;;;;;;;43.78;24.17;;;;;;;;;;5095671;28;20020;-53
2022/01/05 09:49:13;;;;;;;41.53;22.92;;;;;;;;;;5094698;28;20382;-53
2022/01/05 09:51:43;;;;;;;39.15;20.65;;;;;;;;;;5095374;28;20167;-53
2022/01/05 09:54:10;;;;;;;41.83;22.00;;;;;;;;;;5095624;28;20412;-54
2022/01/05 09:56:36;;;;;;;46.45;24.17;;;;;;;;;;5095495;28;20050;-55
2022/01/05 09:59:04;;;;;;;45.88;25.90;;;;;;;;;;5095000;28;20067;-58
2022/01/05 10:01:31;;;;;;;53.70;28.80;;;;;;;;;;5094122;28;20377;-57
2022/01/05 10:03:58;;;;;;;60.13;33.58;;;;;;;;;;5095105;28;20103;-52
2022/01/05 10:06:24;;;;;;;59.25;31.40;;;;;;;;;;5095256;28;20031;-53
2022/01/05 10:08:50;;;;;;;60.17;29.60;;;;;;;;;;5095133;28;20024;-54
2022/01/05 10:11:17;;;;;;;49.33;28.35;;;;;;;;;;5095027;28;20382;-51
2022/01/05 10:13:46;;;;;;;49.35;25.52;;;;;;;;;;5095084;28;20069;-51
2022/01/05 10:16:12;;;;;;;46.97;24.02;;;;;;;;;;5094909;28;20498;-51
2022/01/05 10:18:42;;;;;;;56.35;27.15;;;;;;;;;;5094855;28;20040;-53
2022/01/05 10:21:09;;;;;;;53.37;28.53;;;;;;;;;;5094765;28;20016;-52
2022/01/05 10:23:36;;;;;;;56.53;30.65;;;;;;;;;;5094718;28;20028;-51
2022/01/05 10:26:18;;;;;;;55.90;29.13;;;;;;;;;;5094597;28;20020;-53
2022/01/05 10:28:45;;;;;;;53.97;29.45;;;;;;;;;;5092773;28;20044;-54
2022/01/05 10:31:15;;;;;;;54.47;28.63;;;;;;;;;;5094028;28;20535;-54
2022/01/05 10:33:41;;;;;;;67.70;36.03;;;;;;;;;;5094000;28;20020;-54
2022/01/05 10:36:07;;;;;;;74.20;37.03;;;;;;;;;;5093879;28;20031;-54
2022/01/05 10:38:34;;;;;;;72.22;36.97;;;;;;;;;;5091193;28;20032;-53
2022/01/05 10:41:13;;;;;;;54.85;30.35;;;;;;;;;;5093862;28;20016;-54
2022/01/05 10:43:59;;;;;;;52.00;27.70;;;;;;;;;;5091987;28;20028;-52
2022/01/05 10:46:33;;;;;;;39.55;22.30;;;;;;;;;;5092647;28;20023;-52
2022/01/05 10:49:00;;;;;;;36.92;21.38;;;;;;;;;;5091676;28;20028;-53
2022/01/05 10:51:30;;;;;;;31.83;18.50;;;;;;;;;;5093591;28;20074;-52
2022/01/05 10:54:15;;;;;;;35.47;20.25;;;;;;;;;;5093317;28;20023;-52
2022/01/05 10:56:41;;;;;;;36.75;19.90;;;;;;;;;;5092824;28;20035;-53
2022/01/05 10:59:07;;;;;;;32.90;18.80;;;;;;;;;;5093262;28;20051;-53
2022/01/05 11:01:34;;;;;;;36.42;21.60;;;;;;;;;;5093536;28;20020;-52
2022/01/05 11:04:14;;;;;;;41.63;23.50;;;;;;;;;;5093674;28;20024;-53
2022/01/05 11:06:53;;;;;;;45.53;26.70;;;;;;;;;;5092910;28;20024;-53
2022/01/05 11:09:21;;;;;;;45.50;22.70;;;;;;;;;;5092062;28;20143;-53
2022/01/05 11:11:49;;;;;;;44.47;24.30;;;;;;;;;;5093298;28;20024;-53
2022/01/05 11:14:17;;;;;;;34.08;22.33;;;;;;;;;;5093354;28;20036;-53
2022/01/05 11:16:44;;;;;;;57.03;30.75;;;;;;;;;;5093300;28;20030;-51
2022/01/05 11:19:13;;;;;;;45.67;25.15;;;;;;;;;;5093218;28;20043;-52
2022/01/05 11:21:40;;;;;;;56.72;28.65;;;;;;;;;;5093283;28;20430;-52
2022/01/05 11:24:09;;;;;;;55.25;27.95;;;;;;;;;;5093138;28;20019;-54
2022/01/05 11:26:35;;;;;;;75.75;37.22;;;;;;;;;;5092637;28;20040;-52
2022/01/05 11:29:06;;;;;;;31.90;16.85;;;;;;;;;;5090357;28;20047;-52
2022/01/05 11:31:34;;;;;;;35.55;19.20;;;;;;;;;;5093065;28;20020;-53
2022/01/05 11:34:01;;;;;;;27.17;13.68;;;;;;;;;;5090309;28;20018;-53
2022/01/05 11:36:27;;;;;;;29.27;13.32;;;;;;;;;;5092942;28;20020;-54
2022/01/05 11:38:53;;;;;;;21.40;11.27;;;;;;;;;;5092786;28;20034;-53
2022/01/05 11:41:20;;;;;;;26.23;14.20;;;;;;;;;;5092851;28;20476;-53
2022/01/05 11:43:46;;;;;;;27.38;10.73;;;;;;;;;;5092903;28;20044;-53
2022/01/05 11:46:14;;;;;;;18.42;11.32;;;;;;;;;;5092979;28;20020;-53
2022/01/05 11:48:40;;;;;;;22.30;11.93;;;;;;;;;;5090294;28;20031;-53
2022/01/05 11:51:07;;;;;;;34.03;19.67;;;;;;;;;;5092773;28;20020;-53
2022/01/05 11:53:34;;;;;;;40.92;21.42;;;;;;;;;;5092721;28;20587;-53
2022/01/05 11:56:01;;;;;;;31.40;15.43;;;;;;;;;;5090099;28;20021;-54
2022/01/05 11:58:29;;;;;;;18.17;11.18;;;;;;;;;;5092733;28;20028;-53
2022/01/05 12:01:13;;;;;;;25.30;13.18;;;;;;;;;;5092565;28;20023;-54
2022/01/05 12:03:53;;;;;;;33.55;15.23;;;;;;;;;;5090143;28;20021;-53
2022/01/05 12:06:22;;;;;;;27.00;10.95;;;;;;;;;;5092624;28;20020;-52
2022/01/05 12:08:49;;;;;;;28.30;10.82;;;;;;;;;;5092741;28;20024;-53
2022/01/05 12:11:34;;;;;;;17.05;9.85;;;;;;;;;;5093468;28;20027;-52
2022/01/05 12:14:02;;;;;;;16.40;9.05;;;;;;;;;;5094413;28;20039;-52
2022/01/05 12:16:28;;;;;;;16.67;9.50;;;;;;;;;;5096555;28;20023;-52
2022/01/05 12:19:07;;;;;;;15.15;8.00;;;;;;;;;;5097009;28;20036;-52
2022/01/05 12:21:44;;;;;;;27.02;10.88;;;;;;;;;;5097170;28;20024;-55
2022/01/05 12:24:14;;;;;;;24.30;10.70;;;;;;;;;;5097201;28;20058;-53
2022/01/05 12:26:41;;;;;;;24.03;14.47;;;;;;;;;;5097329;28;20107;-52
2022/01/05 12:29:07;;;;;;;29.90;13.20;;;;;;;;;;5097021;28;20052;-52
2022/01/05 12:31:48;;;;;;;23.60;10.68;;;;;;;;;;5097183;28;20089;-52
2022/01/05 12:34:15;;;;;;;22.48;11.82;;;;;;;;;;5097320;28;20470;-52
2022/01/05 12:36:42;;;;;;;15.93;9.00;;;;;;;;;;5096921;28;20474;-52
2022/01/05 12:39:09;;;;;;;18.30;11.27;;;;;;;;;;5096918;28;20123;-53
2022/01/05 12:41:39;;;;;;;28.05;11.20;;;;;;;;;;5096914;28;20022;-54
2022/01/05 12:44:22;;;;;;;26.83;11.60;;;;;;;;;;5096792;28;20051;-52
2022/01/05 12:46:54;;;;;;;31.50;12.60;;;;;;;;;;5097006;28;20012;-51
2022/01/05 12:49:29;;;;;;;17.45;10.93;;;;;;;;;;5096865;28;20051;-52
2022/01/05 12:51:56;;;;;;;24.52;12.38;;;;;;;;;;5096942;28;20024;-54
2022/01/05 12:54:26;;;;;;;25.80;12.18;;;;;;;;;;5096645;28;20394;-53
2022/01/05 12:57:03;;;;;;;27.13;14.55;;;;;;;;;;5096622;28;20028;-53
2022/01/05 12:59:30;;;;;;;25.95;13.07;;;;;;;;;;5096492;28;20036;-52
2022/01/05 13:02:01;;;;;;;20.63;12.95;;;;;;;;;;5096512;28;20016;-53
2022/01/05 13:04:30;;;;;;;23.20;13.83;;;;;;;;;;5096623;28;20016;-52
2022/01/05 13:06:58;;;;;;;26.65;14.05;;;;;;;;;;5096381;28;20298;-52
2022/01/05 13:09:31;;;;;;;26.58;14.35;;;;;;;;;;5096285;28;20036;-50
2022/01/05 13:11:59;;;;;;;17.40;11.68;;;;;;;;;;5096585;28;20032;-51
2022/01/05 13:14:26;;;;;;;19.23;12.23;;;;;;;;;;5096281;28;20024;-51
2022/01/05 13:16:56;;;;;;;20.90;13.13;;;;;;;;;;5096283;28;20530;-51
2022/01/05 13:19:24;;;;;;;23.23;12.85;;;;;;;;;;5096611;28;20195;-52
2022/01/05 13:21:52;;;;;;;23.85;11.80;;;;;;;;;;5096211;28;20024;-51
2022/01/05 13:24:21;;;;;;;13.57;9.50;;;;;;;;;;5096300;28;20024;-51
2022/01/05 13:26:59;;;;;;;17.38;10.00;;;;;;;;;;5096101;28;20024;-51
2022/01/05 13:29:28;;;;;;;17.38;9.60;;;;;;;;;;5095854;28;20572;-52
2022/01/05 13:31:55;;;;;;;23.70;13.15;;;;;;;;;;5095869;28;20020;-50
2022/01/05 13:34:41;;;;;;;20.67;13.23;;;;;;;;;;5095874;28;20035;-52
2022/01/05 13:37:08;;;;;;;35.20;18.60;;;;;;;;;;5095882;28;20027;-52
2022/01/05 13:39:34;;;;;;;33.72;17.92;;;;;;;;;;5095847;28;20485;-53
2022/01/05 13:42:00;;;;;;;40.95;20.58;;;;;;;;;;5095729;28;20055;-53
2022/01/05 13:44:26;;;;;;;41.15;20.88;;;;;;;;;;5095691;28;20090;-51
2022/01/05 13:46:52;;;;;;;40.70;18.58;;;;;;;;;;5095486;28;20031;-52
2022/01/05 13:49:18;;;;;;;33.47;15.38;;;;;;;;;;5095894;28;20059;-52
2022/01/05 13:52:01;;;;;;;27.38;14.65;;;;;;;;;;5095489;28;20028;-50
2022/01/05 13:54:27;;;;;;;32.17;16.77;;;;;;;;;;5095479;28;20024;-50
2022/01/05 13:56:53;;;;;;;30.67;15.25;;;;;;;;;;5095531;28;20047;-50
2022/01/05 13:59:19;;;;;;;27.20;14.25;;;;;;;;;;5093947;28;20076;-50
2022/01/05 14:01:58;;;;;;;31.92;17.00;;;;;;;;;;5095234;28;20016;-53
2022/01/05 14:04:26;;;;;;;25.63;14.15;;;;;;;;;;5095457;28;20528;-51
2022/01/05 14:07:02;;;;;;;30.40;14.80;;;;;;;;;;5095359;28;20040;-51
2022/01/05 14:09:29;;;;;;;28.90;15.43;;;;;;;;;;5095338;28;20413;-52
2022/01/05 14:11:59;;;;;;;27.38;16.02;;;;;;;;;;5095146;28;20056;-52
2022/01/05 14:14:31;;;;;;;28.25;15.48;;;;;;;;;;5094996;28;20552;-51
2022/01/05 14:16:57;;;;;;;31.40;16.67;;;;;;;;;;5093696;28;20036;-51
2022/01/05 14:19:28;;;;;;;28.67;14.32;;;;;;;;;;5094941;28;20071;-50
2022/01/05 14:22:03;;;;;;;40.08;18.48;;;;;;;;;;5095080;28;20020;-50
2022/01/05 14:24:32;;;;;;;49.67;20.02;;;;;;;;;;5095089;28;20032;-50
2022/01/05 14:26:58;;;;;;;45.67;20.20;;;;;;;;;;5095069;28;20085;-51
2022/01/05 14:29:25;;;;;;;49.17;20.88;;;;;;;;;;5094669;28;20502;-50
2022/01/05 14:31:51;;;;;;;45.67;21.73;;;;;;;;;;5094541;28;20030;-50